createdAt,value
2018-04-07T00:00:24.264Z,3.23
2018-04-07T00:02:53.259Z,2.70
2018-04-07T00:05:23.181Z,4.43
2018-04-07T00:07:53.322Z,2.67
2018-04-07T00:10:24.107Z,2.70
2018-04-07T00:12:53.199Z,2.43
2018-04-07T00:15:22.261Z,2.70
2018-04-07T00:17:52.035Z,2.23
2018-04-07T00:20:21.266Z,3.23
2018-04-07T00:22:51.250Z,2.03
2018-04-07T00:25:20.186Z,2.23
2018-04-07T00:27:49.142Z,2.20
2018-04-07T00:30:18.885Z,2.27
2018-04-07T00:32:48.934Z,2.23
2018-04-07T00:35:18.275Z,2.20
2018-04-07T00:37:47.474Z,2.07
2018-04-07T00:40:16.667Z,5.13
2018-04-07T00:42:46.353Z,1.90
2018-04-07T00:45:15.371Z,2.93
2018-04-07T00:47:45.958Z,2.70
2018-04-07T00:50:14.972Z,2.10
2018-04-07T00:52:56.008Z,2.10
2018-04-07T00:55:25.075Z,2.80
2018-04-07T00:57:54.115Z,1.40
2018-04-07T01:00:25.792Z,1.93
2018-04-07T01:02:55.460Z,1.90
2018-04-07T01:05:24.955Z,5.13
2018-04-07T01:07:55.774Z,2.07
2018-04-07T01:10:25.927Z,3.50
2018-04-07T01:12:55.896Z,3.37
2018-04-07T01:15:25.939Z,1.80
2018-04-07T01:17:54.926Z,2.23
2018-04-07T01:20:24.122Z,2.10
2018-04-07T01:22:55.853Z,3.83
2018-04-07T01:25:24.876Z,3.00
2018-04-07T01:27:54.077Z,3.77
2018-04-07T01:30:23.276Z,2.73
2018-04-07T01:32:53.194Z,2.67
2018-04-07T01:35:22.236Z,2.90
2018-04-07T01:37:53.650Z,1.80
2018-04-07T01:40:22.935Z,2.17
2018-04-07T01:42:51.963Z,1.90
2018-04-07T01:45:22.752Z,2.27
2018-04-07T01:48:03.713Z,1.70
2018-04-07T01:50:32.831Z,1.40
2018-04-07T01:53:02.760Z,2.50
2018-04-07T01:55:31.804Z,1.60
2018-04-07T01:58:02.421Z,3.63
2018-04-07T02:00:31.491Z,1.80
2018-04-07T02:03:00.675Z,7.90
2018-04-07T02:05:30.635Z,2.10
2018-04-07T02:08:01.542Z,1.80
2018-04-07T02:10:30.629Z,4.30
2018-04-07T02:13:01.673Z,2.93
2018-04-07T02:15:30.743Z,1.67
2018-04-07T02:17:59.969Z,1.77
2018-04-07T02:20:29.205Z,2.87
2018-04-07T02:22:58.361Z,1.90
2018-04-07T02:25:27.545Z,3.77
2018-04-07T02:27:56.612Z,1.93
2018-04-07T02:30:26.592Z,1.77
2018-04-07T02:32:55.558Z,1.40
2018-04-07T02:35:24.768Z,2.10
2018-04-07T02:37:54.822Z,2.93
2018-04-07T02:40:24.328Z,1.67
2018-04-07T02:42:55.911Z,2.53
2018-04-07T02:45:25.931Z,3.73
2018-04-07T02:47:55.099Z,2.20
2018-04-07T02:50:26.578Z,1.77
2018-04-07T02:52:55.790Z,5.00
2018-04-07T02:55:24.886Z,3.03
2018-04-07T02:57:55.757Z,2.93
2018-04-07T03:00:24.761Z,4.00
2018-04-07T03:02:54.760Z,3.17
2018-04-07T03:05:24.251Z,3.40
2018-04-07T03:07:54.031Z,3.97
2018-04-07T03:10:23.106Z,1.83
2018-04-07T03:12:55.550Z,2.77
2018-04-07T03:15:26.517Z,4.40
2018-04-07T03:20:30.701Z,1.50
2018-04-07T03:23:04.525Z,1.93
2018-04-07T03:25:34.425Z,2.83
2018-04-07T03:28:03.471Z,5.73
2018-04-07T03:33:08.081Z,5.57
2018-04-07T03:35:37.798Z,1.67
2018-04-07T03:38:06.830Z,2.50
2018-04-07T03:40:36.485Z,1.70
2018-04-07T03:43:05.684Z,5.33
2018-04-07T03:45:35.434Z,1.67
2018-04-07T03:48:04.652Z,3.17
2018-04-07T03:50:33.733Z,5.07
2018-04-07T03:53:03.801Z,3.80
2018-04-07T03:55:32.863Z,2.20
2018-04-07T03:58:02.753Z,2.10
2018-04-07T04:00:32.543Z,2.10
2018-04-07T04:03:01.534Z,2.50
2018-04-07T04:05:30.638Z,4.33
2018-04-07T04:08:00.648Z,2.97
2018-04-07T04:10:29.735Z,2.43
2018-04-07T04:12:58.727Z,3.07
2018-04-07T04:18:01.639Z,4.37
2018-04-07T04:20:30.666Z,3.80
2018-04-07T04:22:59.737Z,5.93
2018-04-07T04:25:28.660Z,9.60
2018-04-07T04:27:58.644Z,6.03
2018-04-07T04:30:27.830Z,6.93
2018-04-07T04:32:58.066Z,3.70
2018-04-07T04:35:27.625Z,4.77
2018-04-07T04:37:57.591Z,7.87
2018-04-07T04:40:26.594Z,4.83
2018-04-07T04:42:55.785Z,4.47
2018-04-07T04:45:24.984Z,13.20
2018-04-07T04:47:54.015Z,4.60
2018-04-07T04:50:23.011Z,5.40
2018-04-07T04:52:53.883Z,7.53
2018-04-07T04:55:22.849Z,7.47
2018-04-07T04:57:51.937Z,6.97
2018-04-07T05:00:21.603Z,5.27
2018-04-07T05:02:50.738Z,4.20
2018-04-07T05:05:20.727Z,5.30
2018-04-07T05:07:49.818Z,9.50
2018-04-07T05:10:19.635Z,9.33
2018-04-07T05:12:50.268Z,7.33
2018-04-07T05:17:53.878Z,12.30
2018-04-07T05:20:23.806Z,18.07
2018-04-07T05:22:54.850Z,11.33
2018-04-07T05:25:23.836Z,9.43
2018-04-07T05:27:54.502Z,6.90
2018-04-07T05:30:25.136Z,6.63
2018-04-07T05:32:54.929Z,11.33
2018-04-07T05:35:26.512Z,6.70
2018-04-07T05:37:56.628Z,13.10
2018-04-07T05:40:25.893Z,7.30
2018-04-07T05:42:55.840Z,8.10
2018-04-07T05:45:24.911Z,8.50
2018-04-07T05:47:54.005Z,9.77
2018-04-07T05:52:59.833Z,6.47
2018-04-07T05:55:29.075Z,9.07
2018-04-07T05:57:59.052Z,12.77
2018-04-07T06:00:28.190Z,7.30
2018-04-07T06:02:57.280Z,8.53
2018-04-07T06:05:27.122Z,7.80
2018-04-07T06:07:57.576Z,11.73
2018-04-07T06:10:27.167Z,6.10
2018-04-07T06:12:56.260Z,12.07
2018-04-07T06:15:26.078Z,5.80
2018-04-07T06:17:55.073Z,8.07
2018-04-07T06:20:24.860Z,11.30
2018-04-07T06:22:55.214Z,10.43
2018-04-07T06:25:24.471Z,15.70
2018-04-07T06:27:56.162Z,20.70
2018-04-07T06:30:25.279Z,14.93
2018-04-07T06:32:54.256Z,15.07
2018-04-07T06:35:24.847Z,14.23
2018-04-07T06:37:53.711Z,8.00
2018-04-07T06:40:22.883Z,7.80
2018-04-07T06:42:52.527Z,12.50
2018-04-07T06:45:21.548Z,9.40
2018-04-07T06:47:56.583Z,10.50
2018-04-07T06:50:29.490Z,11.30
2018-04-07T06:53:00.275Z,9.00
2018-04-07T06:55:29.306Z,12.50
2018-04-07T06:57:58.201Z,8.23
2018-04-07T07:00:27.316Z,6.60
2018-04-07T07:02:56.280Z,14.57
2018-04-07T07:05:25.547Z,5.77
2018-04-07T07:07:55.201Z,7.07
2018-04-07T07:10:25.050Z,7.10
2018-04-07T07:12:54.186Z,7.33
2018-04-07T07:15:23.601Z,8.50
2018-04-07T07:17:52.872Z,8.03
2018-04-07T07:20:21.870Z,10.80
2018-04-07T07:22:51.076Z,9.20
2018-04-07T07:25:21.035Z,6.20
2018-04-07T07:27:51.553Z,7.90
2018-04-07T07:30:20.452Z,7.00
2018-04-07T07:32:49.517Z,8.30
2018-04-07T07:35:19.172Z,5.50
2018-04-07T07:37:48.210Z,5.70
2018-04-07T07:40:18.184Z,8.97
2018-04-07T07:42:48.808Z,5.80
2018-04-07T07:45:17.992Z,5.43
2018-04-07T07:47:47.192Z,6.03
2018-04-07T07:50:16.256Z,5.13
2018-04-07T07:52:45.176Z,9.23
2018-04-07T07:55:15.364Z,6.30
2018-04-07T08:00:19.592Z,5.57
2018-04-07T08:02:49.568Z,20.77
2018-04-07T08:05:18.657Z,7.63
2018-04-07T08:07:48.175Z,10.73
2018-04-07T08:10:18.135Z,7.20
2018-04-07T08:12:48.769Z,8.57
2018-04-07T08:15:17.897Z,6.87
2018-04-07T08:17:47.669Z,11.03
2018-04-07T08:22:52.057Z,9.33
2018-04-07T08:25:21.522Z,8.43
2018-04-07T08:27:50.727Z,8.97
2018-04-07T08:30:19.816Z,8.70
2018-04-07T08:32:48.919Z,6.93
2018-04-07T08:35:18.727Z,7.80
2018-04-07T08:37:48.248Z,11.00
2018-04-07T08:40:17.940Z,11.33
2018-04-07T08:42:48.119Z,14.40
2018-04-07T08:45:17.160Z,12.80
2018-04-07T08:47:46.034Z,11.77
2018-04-07T08:50:17.761Z,8.33
2018-04-07T08:52:47.008Z,8.27
2018-04-07T08:55:16.313Z,10.20
2018-04-07T09:00:20.955Z,10.50
2018-04-07T09:02:50.068Z,15.33
2018-04-07T09:05:19.032Z,11.17
2018-04-07T09:07:48.328Z,6.07
2018-04-07T09:10:18.616Z,9.60
2018-04-07T09:12:48.597Z,12.00
2018-04-07T09:15:21.688Z,6.77
2018-04-07T09:17:51.813Z,13.50
2018-04-07T09:20:21.097Z,9.13
2018-04-07T09:22:51.628Z,7.87
2018-04-07T09:25:21.040Z,9.10
2018-04-07T09:27:52.869Z,12.27
2018-04-07T09:30:21.761Z,8.53
2018-04-07T09:32:50.729Z,14.90
2018-04-07T09:35:20.901Z,12.23
2018-04-07T09:37:50.508Z,17.27
2018-04-07T09:40:20.231Z,12.50
2018-04-07T09:42:49.177Z,8.40
2018-04-07T09:45:19.376Z,13.90
2018-04-07T09:47:48.326Z,9.83
2018-04-07T09:52:55.691Z,12.00
2018-04-07T09:55:24.876Z,14.13
2018-04-07T09:57:54.579Z,13.20
2018-04-07T10:00:25.480Z,9.63
2018-04-07T10:03:01.545Z,13.60
2018-04-07T10:05:36.880Z,8.90
2018-04-07T10:08:06.884Z,12.87
2018-04-07T10:10:36.103Z,7.60
2018-04-07T10:13:05.409Z,12.00
2018-04-07T10:15:34.494Z,12.50
2018-04-07T10:18:03.493Z,13.37
2018-04-07T10:20:35.558Z,10.83
2018-04-07T10:23:04.495Z,9.17
2018-04-07T10:25:34.225Z,11.40
2018-04-07T10:28:03.570Z,15.43
2018-04-07T10:30:32.573Z,14.03
2018-04-07T10:33:02.282Z,12.37
2018-04-07T10:35:32.338Z,14.43
2018-04-07T10:38:03.546Z,16.00
2018-04-07T10:40:32.642Z,8.27
2018-04-07T10:43:01.834Z,7.50
2018-04-07T10:45:30.931Z,12.43
2018-04-07T10:48:01.663Z,8.83
2018-04-07T10:50:31.528Z,10.37
2018-04-07T10:53:00.717Z,13.90
2018-04-07T10:55:31.310Z,9.73
2018-04-07T10:58:00.496Z,13.00
2018-04-07T11:00:30.453Z,12.93
2018-04-07T11:02:59.552Z,7.67
2018-04-07T11:05:28.531Z,8.67
2018-04-07T11:07:58.452Z,10.03
2018-04-07T11:10:27.499Z,9.37
2018-04-07T11:12:57.231Z,11.60
2018-04-07T11:15:26.277Z,11.77
2018-04-07T11:17:57.166Z,9.30
2018-04-07T11:20:26.265Z,12.20
2018-04-07T11:22:55.364Z,9.83
2018-04-07T11:25:24.370Z,9.97
2018-04-07T11:27:54.711Z,13.93
2018-04-07T11:30:24.283Z,11.43
2018-04-07T11:32:54.239Z,14.00
2018-04-07T11:35:23.399Z,13.67
2018-04-07T11:37:53.217Z,10.73
2018-04-07T11:40:24.084Z,12.50
2018-04-07T11:42:53.141Z,10.00
2018-04-07T11:45:22.245Z,12.10
2018-04-07T11:47:51.482Z,15.17
2018-04-07T11:50:21.451Z,10.97
2018-04-07T11:52:50.650Z,14.07
2018-04-07T11:55:19.939Z,10.70
2018-04-07T11:57:49.368Z,9.30
2018-04-07T12:00:18.338Z,14.53
2018-04-07T12:02:47.253Z,12.63
2018-04-07T12:05:17.275Z,14.40
2018-04-07T12:07:47.408Z,10.43
2018-04-07T12:10:16.665Z,17.13
2018-04-07T12:12:49.718Z,12.13
2018-04-07T12:15:18.898Z,9.63
2018-04-07T12:17:48.968Z,11.43
2018-04-07T12:20:18.913Z,11.60
2018-04-07T12:22:48.108Z,11.00
2018-04-07T12:25:17.214Z,11.17
2018-04-07T12:27:47.163Z,7.40
2018-04-07T12:30:16.317Z,11.40
2018-04-07T12:32:45.625Z,28.07
2018-04-07T12:35:14.826Z,11.03
2018-04-07T12:37:43.754Z,9.20
2018-04-07T12:40:12.811Z,10.83
2018-04-07T12:42:43.060Z,7.00
2018-04-07T12:45:12.375Z,14.03
2018-04-07T12:47:41.474Z,8.20
2018-04-07T12:50:11.350Z,9.90
2018-04-07T12:52:41.987Z,6.83
2018-04-07T12:55:11.074Z,10.47
2018-04-07T12:57:41.010Z,14.73
2018-04-07T13:00:10.240Z,14.37
2018-04-07T13:02:43.132Z,13.97
2018-04-07T13:05:12.991Z,10.07
2018-04-07T13:07:42.928Z,9.77
2018-04-07T13:10:13.942Z,7.17
2018-04-07T13:12:44.068Z,14.23
2018-04-07T13:15:13.203Z,10.43
2018-04-07T13:17:43.035Z,10.67
2018-04-07T13:20:17.853Z,9.90
2018-04-07T13:22:47.259Z,10.47
2018-04-07T13:25:16.454Z,11.17
2018-04-07T13:27:45.763Z,10.00
2018-04-07T13:30:16.354Z,12.07
2018-04-07T13:32:46.384Z,11.33
2018-04-07T13:35:15.474Z,13.67
2018-04-07T13:37:44.522Z,12.17
2018-04-07T13:40:13.454Z,20.23
2018-04-07T13:42:42.386Z,16.20
2018-04-07T13:45:11.607Z,11.10
2018-04-07T13:47:40.584Z,11.57
2018-04-07T13:50:09.986Z,10.63
2018-04-07T13:52:41.770Z,6.83
2018-04-07T13:55:18.051Z,13.60
2018-04-07T13:57:50.261Z,10.27
2018-04-07T14:00:19.264Z,11.40
2018-04-07T14:02:48.277Z,10.80
2018-04-07T14:05:19.959Z,10.03
2018-04-07T14:07:49.097Z,12.37
2018-04-07T14:10:18.894Z,17.80
2018-04-07T14:12:48.750Z,15.70
2018-04-07T14:15:17.736Z,10.93
2018-04-07T14:17:46.828Z,14.60
2018-04-07T14:20:17.790Z,13.40
2018-04-07T14:22:46.861Z,12.77
2018-04-07T14:25:16.178Z,15.60
2018-04-07T14:27:45.326Z,18.00
2018-04-07T14:30:16.478Z,16.53
2018-04-07T14:32:45.465Z,14.80
2018-04-07T14:35:16.183Z,19.10
2018-04-07T14:37:47.277Z,14.80
2018-04-07T14:40:17.242Z,14.10
2018-04-07T14:42:46.475Z,12.37
2018-04-07T14:45:15.488Z,13.90
2018-04-07T14:47:44.585Z,11.87
2018-04-07T14:50:14.513Z,10.53
2018-04-07T14:52:45.642Z,17.57
2018-04-07T14:55:14.850Z,15.07
2018-04-07T14:57:44.251Z,13.90
2018-04-07T15:00:14.097Z,13.97
2018-04-07T15:02:44.044Z,12.80
2018-04-07T15:05:13.384Z,17.63
2018-04-07T15:07:42.809Z,16.13
2018-04-07T15:10:12.805Z,14.17
2018-04-07T15:12:42.580Z,20.40
2018-04-07T15:15:13.470Z,12.43
2018-04-07T15:17:42.412Z,11.10
2018-04-07T15:20:11.498Z,21.60
2018-04-07T15:22:40.556Z,27.00
2018-04-07T15:25:10.356Z,11.90
2018-04-07T15:27:40.960Z,14.13
2018-04-07T15:30:11.686Z,13.83
2018-04-07T15:32:40.688Z,14.20
2018-04-07T15:35:09.826Z,14.90
2018-04-07T15:37:38.872Z,10.73
2018-04-07T15:40:08.974Z,16.20
2018-04-07T15:42:39.047Z,16.23
2018-04-07T15:45:08.366Z,21.63
2018-04-07T15:47:38.334Z,15.33
2018-04-07T15:50:07.626Z,15.50
2018-04-07T15:52:36.880Z,12.73
2018-04-07T15:55:05.928Z,10.60
2018-04-07T15:57:35.840Z,14.50
2018-04-07T16:00:05.757Z,13.30
2018-04-07T16:02:36.457Z,14.67
2018-04-07T16:05:05.588Z,14.20
2018-04-07T16:07:35.907Z,13.20
2018-04-07T16:10:05.324Z,13.30
2018-04-07T16:12:35.452Z,14.23
2018-04-07T16:15:04.842Z,9.83
2018-04-07T16:17:33.945Z,11.63
2018-04-07T16:20:03.330Z,13.63
2018-04-07T16:22:34.199Z,16.10
2018-04-07T16:25:03.928Z,13.33
2018-04-07T16:27:33.815Z,12.40
2018-04-07T16:30:05.733Z,12.57
2018-04-07T16:32:35.515Z,8.03
2018-04-07T16:35:05.427Z,11.20
2018-04-07T16:37:34.796Z,11.67
2018-04-07T16:40:09.658Z,9.97
2018-04-07T16:42:39.932Z,11.90
2018-04-07T16:45:08.995Z,14.43
2018-04-07T16:47:38.071Z,10.57
2018-04-07T16:50:08.441Z,17.10
2018-04-07T16:52:39.520Z,12.37
2018-04-07T16:55:11.431Z,11.63
2018-04-07T16:57:41.607Z,9.13
2018-04-07T17:00:11.745Z,7.60
2018-04-07T17:02:41.882Z,11.07
2018-04-07T17:05:11.097Z,10.70
2018-04-07T17:07:40.280Z,15.00
2018-04-07T17:10:10.161Z,11.73
2018-04-07T17:12:39.393Z,8.03
2018-04-07T17:15:08.351Z,8.40
2018-04-07T17:17:38.141Z,9.67
2018-04-07T17:20:07.154Z,14.17
2018-04-07T17:22:36.325Z,13.43
2018-04-07T17:25:06.242Z,9.80
2018-04-07T17:27:35.299Z,12.40
2018-04-07T17:30:04.462Z,12.23
2018-04-07T17:32:33.627Z,12.47
2018-04-07T17:35:02.569Z,12.30
2018-04-07T17:37:31.481Z,17.87
2018-04-07T17:40:00.872Z,13.40
2018-04-07T17:42:29.886Z,14.60
2018-04-07T17:44:58.834Z,12.90
2018-04-07T17:47:27.881Z,13.23
2018-04-07T17:49:56.934Z,14.03
2018-04-07T17:52:26.925Z,13.67
2018-04-07T17:54:56.797Z,13.10
2018-04-07T17:57:31.695Z,11.90
2018-04-07T18:00:05.185Z,13.43
2018-04-07T18:02:34.316Z,11.63
2018-04-07T18:05:04.309Z,15.93
2018-04-07T18:07:33.507Z,12.03
2018-04-07T18:10:02.483Z,14.13
2018-04-07T18:12:31.826Z,11.70
2018-04-07T18:15:01.661Z,16.97
2018-04-07T18:17:30.946Z,14.67
2018-04-07T18:20:00.116Z,13.57
2018-04-07T18:22:29.444Z,10.50
2018-04-07T18:24:58.665Z,12.10
2018-04-07T18:27:28.666Z,14.77
2018-04-07T18:29:59.599Z,9.27
2018-04-07T18:32:28.634Z,14.80
2018-04-07T18:34:57.899Z,12.27
2018-04-07T18:37:28.945Z,12.80
2018-04-07T18:39:59.199Z,12.30
2018-04-07T18:42:28.224Z,11.83
2018-04-07T18:44:59.600Z,15.00
2018-04-07T18:47:29.328Z,11.97
2018-04-07T18:52:34.275Z,12.20
2018-04-07T18:55:03.275Z,12.73
2018-04-07T18:57:34.519Z,14.90
2018-04-07T19:00:04.389Z,11.00
2018-04-07T19:02:33.483Z,15.40
2018-04-07T19:05:03.609Z,13.60
2018-04-07T19:07:33.186Z,12.80
2018-04-07T19:10:02.358Z,12.20
2018-04-07T19:12:32.381Z,14.57
2018-04-07T19:15:01.369Z,13.37
2018-04-07T19:17:31.220Z,13.57
2018-04-07T19:20:00.443Z,12.47
2018-04-07T19:22:30.049Z,11.37
2018-04-07T19:24:59.339Z,13.03
2018-04-07T19:27:28.418Z,10.80
2018-04-07T19:29:57.702Z,13.10
2018-04-07T19:32:26.898Z,13.67
2018-04-07T19:34:55.989Z,12.73
2018-04-07T19:37:24.985Z,10.40
2018-04-07T19:39:54.127Z,13.53
2018-04-07T19:42:24.922Z,13.73
2018-04-07T19:44:54.424Z,14.47
2018-04-07T19:47:24.780Z,9.93
2018-04-07T19:49:57.933Z,13.53
2018-04-07T19:52:26.952Z,11.40
2018-04-07T19:54:56.796Z,10.20
2018-04-07T19:57:25.803Z,8.40
2018-04-07T19:59:54.946Z,10.20
2018-04-07T20:02:25.005Z,11.67
2018-04-07T20:04:55.775Z,11.73
2018-04-07T20:07:32.881Z,16.40
2018-04-07T20:10:02.224Z,10.80
2018-04-07T20:12:31.126Z,13.10
2018-04-07T20:15:00.161Z,11.73
2018-04-07T20:17:29.289Z,12.23
2018-04-07T20:19:58.251Z,14.27
2018-04-07T20:22:27.378Z,12.13
2018-04-07T20:24:57.456Z,11.03
2018-04-07T20:27:27.299Z,9.70
2018-04-07T20:29:57.116Z,12.40
2018-04-07T20:32:26.398Z,10.40
2018-04-07T20:34:55.453Z,11.00
2018-04-07T20:37:24.586Z,9.50
2018-04-07T20:39:54.514Z,8.70
2018-04-07T20:42:28.715Z,11.63
2018-04-07T20:44:57.914Z,10.70
2018-04-07T20:47:26.914Z,9.10
2018-04-07T20:49:56.066Z,12.40
2018-04-07T20:52:25.202Z,8.90
2018-04-07T20:54:55.062Z,9.43
2018-04-07T20:57:24.215Z,11.80
2018-04-07T20:59:54.171Z,10.23
2018-04-07T21:02:23.230Z,12.03
2018-04-07T21:04:55.850Z,10.90
2018-04-07T21:07:24.975Z,11.30
2018-04-07T21:09:54.064Z,10.57
2018-04-07T21:12:23.207Z,15.63
2018-04-07T21:14:52.293Z,10.70
2018-04-07T21:17:22.863Z,12.60
2018-04-07T21:19:53.879Z,12.07
2018-04-07T21:22:22.864Z,10.13
2018-04-07T21:24:51.801Z,9.90
2018-04-07T21:27:24.002Z,13.63
2018-04-07T21:29:53.174Z,11.40
2018-04-07T21:32:22.472Z,12.07
2018-04-07T21:34:51.751Z,11.07
2018-04-07T21:37:21.743Z,9.50
2018-04-07T21:39:50.735Z,11.10
2018-04-07T21:42:19.794Z,11.47
2018-04-07T21:44:48.866Z,12.50
2018-04-07T21:47:17.822Z,11.70
2018-04-07T21:49:48.145Z,13.20
2018-04-07T21:52:17.160Z,10.70
2018-04-07T21:54:46.310Z,11.70
2018-04-07T21:59:53.054Z,13.77
2018-04-07T22:02:22.434Z,10.60
2018-04-07T22:04:51.559Z,12.73
2018-04-07T22:07:21.481Z,10.63
2018-04-07T22:09:51.029Z,13.03
2018-04-07T22:12:20.989Z,8.50
2018-04-07T22:14:50.070Z,9.10
2018-04-07T22:17:19.995Z,12.93
2018-04-07T22:19:52.122Z,8.90
2018-04-07T22:22:21.097Z,18.03
2018-04-07T22:24:50.373Z,18.17
2018-04-07T22:27:20.354Z,17.73
2018-04-07T22:29:51.093Z,10.80
2018-04-07T22:32:21.017Z,9.37
2018-04-07T22:34:50.923Z,12.50
2018-04-07T22:37:22.479Z,10.67
2018-04-07T22:39:51.783Z,12.43
2018-04-07T22:42:20.913Z,9.60
2018-04-07T22:44:50.171Z,13.60
2018-04-07T22:47:19.928Z,8.20
2018-04-07T22:49:49.136Z,8.77
2018-04-07T22:52:18.156Z,9.20
2018-04-07T22:54:47.326Z,8.73
2018-04-07T22:57:18.118Z,7.37
2018-04-07T22:59:47.373Z,9.40
2018-04-07T23:02:18.129Z,13.33
2018-04-07T23:04:47.196Z,9.47
2018-04-07T23:07:17.072Z,7.87
2018-04-07T23:09:47.800Z,10.43
2018-04-07T23:12:16.935Z,8.13
2018-04-07T23:14:46.226Z,8.57
2018-04-07T23:17:17.453Z,7.83
2018-04-07T23:19:46.616Z,7.90
2018-04-07T23:22:17.519Z,9.97
2018-04-07T23:24:49.285Z,11.50
2018-04-07T23:27:19.513Z,10.00
2018-04-07T23:29:48.535Z,10.00
2018-04-07T23:32:23.732Z,6.10
2018-04-07T23:34:52.779Z,9.00
2018-04-07T23:37:22.681Z,14.60
2018-04-07T23:39:52.234Z,7.70
2018-04-07T23:42:21.339Z,7.67
2018-04-07T23:44:50.393Z,7.90
2018-04-07T23:47:20.408Z,5.77
2018-04-07T23:49:49.442Z,7.07
2018-04-07T23:52:18.490Z,7.87
2018-04-07T23:54:47.724Z,8.70
2018-04-07T23:57:17.821Z,6.77
2018-04-07T23:59:47.207Z,6.13
